sensor_id;sensor_type;location;lat;lon;timestamp;pressure;altitude;pressure_sealevel;temperature;humidity
37972;BME280;23794;48.234;8.344;2023-02-26T00:00:29;93597.13;;;-2.63;72.12
37972;BME280;23794;48.234;8.344;2023-02-26T00:02:55;93588.75;;;-2.62;70.35
37972;BME280;23794;48.234;8.344;2023-02-26T00:05:22;93582.47;;;-2.78;71.13
37972;BME280;23794;48.234;8.344;2023-02-26T00:07:49;93588.94;;;-2.79;71.21
37972;BME280;23794;48.234;8.344;2023-02-26T00:10:15;93588.19;;;-2.67;70.14
37972;BME280;23794;48.234;8.344;2023-02-26T00:12:42;93589.94;;;-2.71;68.15
37972;BME280;23794;48.234;8.344;2023-02-26T00:15:11;93596.00;;;-2.74;67.87
37972;BME280;23794;48.234;8.344;2023-02-26T00:17:52;93592.38;;;-2.79;70.34
37972;BME280;23794;48.234;8.344;2023-02-26T00:20:24;93594.19;;;-2.83;71.19
37972;BME280;23794;48.234;8.344;2023-02-26T00:22:51;93593.97;;;-2.78;69.46
37972;BME280;23794;48.234;8.344;2023-02-26T00:25:18;93596.84;;;-2.83;70.46
37972;BME280;23794;48.234;8.344;2023-02-26T00:27:46;93592.06;;;-2.77;70.79
37972;BME280;23794;48.234;8.344;2023-02-26T00:30:13;93597.88;;;-2.75;70.17
37972;BME280;23794;48.234;8.344;2023-02-26T00:32:40;93600.19;;;-2.86;71.24
37972;BME280;23794;48.234;8.344;2023-02-26T00:35:11;93603.91;;;-2.78;72.18
37972;BME280;23794;48.234;8.344;2023-02-26T00:40:47;93591.53;;;-2.70;71.13
37972;BME280;23794;48.234;8.344;2023-02-26T00:43:20;93591.63;;;-2.67;69.86
37972;BME280;23794;48.234;8.344;2023-02-26T00:46:02;93600.91;;;-2.64;68.95
37972;BME280;23794;48.234;8.344;2023-02-26T00:51:10;93596.47;;;-2.60;69.12
37972;BME280;23794;48.234;8.344;2023-02-26T00:53:46;93602.03;;;-2.65;68.94
37972;BME280;23794;48.234;8.344;2023-02-26T00:56:15;93599.38;;;-2.53;69.51
37972;BME280;23794;48.234;8.344;2023-02-26T00:58:41;93606.69;;;-2.41;68.96
37972;BME280;23794;48.234;8.344;2023-02-26T01:01:08;93592.69;;;-2.34;67.52
37972;BME280;23794;48.234;8.344;2023-02-26T01:03:35;93596.59;;;-2.32;68.48
37972;BME280;23794;48.234;8.344;2023-02-26T01:06:02;93601.84;;;-2.35;67.75
37972;BME280;23794;48.234;8.344;2023-02-26T01:08:33;93594.03;;;-2.28;68.34
37972;BME280;23794;48.234;8.344;2023-02-26T01:11:05;93602.78;;;-2.31;67.89
37972;BME280;23794;48.234;8.344;2023-02-26T01:13:32;93601.75;;;-2.39;67.81
37972;BME280;23794;48.234;8.344;2023-02-26T01:16:04;93597.41;;;-2.44;67.70
37972;BME280;23794;48.234;8.344;2023-02-26T01:18:41;93593.69;;;-2.51;67.29
37972;BME280;23794;48.234;8.344;2023-02-26T01:21:14;93600.25;;;-2.61;67.06
37972;BME280;23794;48.234;8.344;2023-02-26T01:23:45;93590.91;;;-2.88;65.68
37972;BME280;23794;48.234;8.344;2023-02-26T01:26:25;93599.53;;;-3.16;66.64
37972;BME280;23794;48.234;8.344;2023-02-26T01:28:53;93588.06;;;-3.04;67.95
37972;BME280;23794;48.234;8.344;2023-02-26T01:34:32;93594.34;;;-3.00;68.65
37972;BME280;23794;48.234;8.344;2023-02-26T01:37:18;93596.50;;;-2.94;67.96
37972;BME280;23794;48.234;8.344;2023-02-26T01:42:56;93595.63;;;-2.85;67.01
37972;BME280;23794;48.234;8.344;2023-02-26T01:45:30;93593.97;;;-2.78;66.40
37972;BME280;23794;48.234;8.344;2023-02-26T01:48:11;93599.31;;;-2.78;66.30
37972;BME280;23794;48.234;8.344;2023-02-26T01:50:43;93594.59;;;-2.93;66.02
37972;BME280;23794;48.234;8.344;2023-02-26T01:55:45;93595.75;;;-2.82;65.87
37972;BME280;23794;48.234;8.344;2023-02-26T01:58:14;93596.28;;;-2.88;66.72
37972;BME280;23794;48.234;8.344;2023-02-26T02:00:43;93597.88;;;-2.75;67.87
37972;BME280;23794;48.234;8.344;2023-02-26T02:03:09;93597.94;;;-2.63;66.99
37972;BME280;23794;48.234;8.344;2023-02-26T02:06:01;93600.03;;;-2.68;65.63
37972;BME280;23794;48.234;8.344;2023-02-26T02:08:30;93599.84;;;-2.84;66.93
37972;BME280;23794;48.234;8.344;2023-02-26T02:10:59;93596.84;;;-2.83;67.08
37972;BME280;23794;48.234;8.344;2023-02-26T02:13:42;93609.16;;;-2.82;65.93
37972;BME280;23794;48.234;8.344;2023-02-26T02:19:25;93598.75;;;-2.83;66.96
37972;BME280;23794;48.234;8.344;2023-02-26T02:22:14;93599.34;;;-2.65;66.43
37972;BME280;23794;48.234;8.344;2023-02-26T02:28:09;93599.81;;;-2.63;67.32
37972;BME280;23794;48.234;8.344;2023-02-26T02:33:27;93612.19;;;-2.71;67.69
37972;BME280;23794;48.234;8.344;2023-02-26T02:36:02;93603.56;;;-2.77;66.69
37972;BME280;23794;48.234;8.344;2023-02-26T02:38:35;93608.94;;;-2.77;65.28
37972;BME280;23794;48.234;8.344;2023-02-26T02:41:08;93610.38;;;-2.79;65.14
37972;BME280;23794;48.234;8.344;2023-02-26T02:43:38;93601.72;;;-2.97;65.91
37972;BME280;23794;48.234;8.344;2023-02-26T02:46:12;93604.84;;;-2.95;65.79
37972;BME280;23794;48.234;8.344;2023-02-26T02:48:49;93604.41;;;-2.97;65.71
37972;BME280;23794;48.234;8.344;2023-02-26T02:51:27;93610.13;;;-2.86;66.51
37972;BME280;23794;48.234;8.344;2023-02-26T02:54:05;93610.69;;;-2.81;65.56
37972;BME280;23794;48.234;8.344;2023-02-26T02:56:36;93618.75;;;-2.81;66.31
37972;BME280;23794;48.234;8.344;2023-02-26T02:59:18;93616.03;;;-2.93;65.84
37972;BME280;23794;48.234;8.344;2023-02-26T03:01:49;93617.34;;;-2.99;66.37
37972;BME280;23794;48.234;8.344;2023-02-26T03:04:17;93611.84;;;-2.82;66.44
37972;BME280;23794;48.234;8.344;2023-02-26T03:06:44;93622.00;;;-2.75;65.58
37972;BME280;23794;48.234;8.344;2023-02-26T03:09:12;93620.16;;;-2.96;65.31
37972;BME280;23794;48.234;8.344;2023-02-26T03:11:39;93624.66;;;-2.87;65.54
37972;BME280;23794;48.234;8.344;2023-02-26T03:14:07;93631.25;;;-3.06;64.37
37972;BME280;23794;48.234;8.344;2023-02-26T03:17:07;93636.97;;;-3.08;66.63
37972;BME280;23794;48.234;8.344;2023-02-26T03:20:07;93632.31;;;-2.98;66.08
37972;BME280;23794;48.234;8.344;2023-02-26T03:25:48;93643.69;;;-3.01;65.80
37972;BME280;23794;48.234;8.344;2023-02-26T03:28:28;93646.97;;;-3.17;64.53
37972;BME280;23794;48.234;8.344;2023-02-26T03:31:17;93645.97;;;-3.33;65.19
37972;BME280;23794;48.234;8.344;2023-02-26T03:33:48;93644.03;;;-3.24;66.19
37972;BME280;23794;48.234;8.344;2023-02-26T03:39:11;93654.81;;;-3.33;65.02
37972;BME280;23794;48.234;8.344;2023-02-26T03:41:46;93652.56;;;-3.10;66.86
37972;BME280;23794;48.234;8.344;2023-02-26T03:44:19;93647.47;;;-3.02;66.11
37972;BME280;23794;48.234;8.344;2023-02-26T03:46:54;93652.84;;;-3.02;64.32
37972;BME280;23794;48.234;8.344;2023-02-26T03:50:14;93654.72;;;-3.24;64.62
37972;BME280;23794;48.234;8.344;2023-02-26T03:52:49;93652.97;;;-3.20;66.25
37972;BME280;23794;48.234;8.344;2023-02-26T03:55:29;93650.75;;;-3.18;65.52
37972;BME280;23794;48.234;8.344;2023-02-26T03:58:20;93664.66;;;-3.03;67.13
37972;BME280;23794;48.234;8.344;2023-02-26T04:01:17;93669.50;;;-2.97;65.10
37972;BME280;23794;48.234;8.344;2023-02-26T04:03:49;93672.25;;;-3.05;65.26
37972;BME280;23794;48.234;8.344;2023-02-26T04:06:20;93672.38;;;-3.02;64.38
37972;BME280;23794;48.234;8.344;2023-02-26T04:08:47;93670.81;;;-3.03;64.95
37972;BME280;23794;48.234;8.344;2023-02-26T04:11:16;93667.66;;;-3.26;65.40
37972;BME280;23794;48.234;8.344;2023-02-26T04:13:44;93668.13;;;-3.24;66.42
37972;BME280;23794;48.234;8.344;2023-02-26T04:16:12;93673.50;;;-3.24;66.01
37972;BME280;23794;48.234;8.344;2023-02-26T04:18:40;93668.66;;;-3.31;64.35
37972;BME280;23794;48.234;8.344;2023-02-26T04:21:12;93677.00;;;-3.32;65.32
37972;BME280;23794;48.234;8.344;2023-02-26T04:23:39;93673.28;;;-3.40;64.77
37972;BME280;23794;48.234;8.344;2023-02-26T04:26:06;93672.88;;;-3.51;64.75
37972;BME280;23794;48.234;8.344;2023-02-26T04:28:35;93680.44;;;-3.53;66.13
37972;BME280;23794;48.234;8.344;2023-02-26T04:31:04;93681.78;;;-3.68;65.18
37972;BME280;23794;48.234;8.344;2023-02-26T04:33:32;93677.97;;;-3.88;64.53
37972;BME280;23794;48.234;8.344;2023-02-26T04:35:59;93671.19;;;-3.94;64.54
37972;BME280;23794;48.234;8.344;2023-02-26T04:38:27;93677.06;;;-4.01;65.12
37972;BME280;23794;48.234;8.344;2023-02-26T04:40:54;93680.50;;;-4.00;65.60
37972;BME280;23794;48.234;8.344;2023-02-26T04:43:21;93678.84;;;-4.14;65.00
37972;BME280;23794;48.234;8.344;2023-02-26T04:45:59;93681.09;;;-4.25;66.32
37972;BME280;23794;48.234;8.344;2023-02-26T04:48:28;93683.59;;;-4.28;66.30
37972;BME280;23794;48.234;8.344;2023-02-26T04:50:54;93690.81;;;-4.20;66.99
37972;BME280;23794;48.234;8.344;2023-02-26T04:53:21;93686.53;;;-4.12;66.19
37972;BME280;23794;48.234;8.344;2023-02-26T04:55:48;93688.94;;;-4.20;65.82
37972;BME280;23794;48.234;8.344;2023-02-26T04:58:17;93687.00;;;-4.10;66.42
37972;BME280;23794;48.234;8.344;2023-02-26T05:00:49;93683.41;;;-4.14;66.76
37972;BME280;23794;48.234;8.344;2023-02-26T05:03:16;93690.97;;;-4.16;66.87
37972;BME280;23794;48.234;8.344;2023-02-26T05:05:43;93687.06;;;-4.19;67.27
37972;BME280;23794;48.234;8.344;2023-02-26T05:08:10;93687.81;;;-4.19;67.59
37972;BME280;23794;48.234;8.344;2023-02-26T05:10:36;93684.34;;;-4.10;66.93
37972;BME280;23794;48.234;8.344;2023-02-26T05:13:03;93694.56;;;-4.12;67.47
37972;BME280;23794;48.234;8.344;2023-02-26T05:15:30;93697.72;;;-4.10;66.76
37972;BME280;23794;48.234;8.344;2023-02-26T05:17:56;93698.06;;;-4.21;67.29
37972;BME280;23794;48.234;8.344;2023-02-26T05:20:23;93699.63;;;-4.20;67.09
37972;BME280;23794;48.234;8.344;2023-02-26T05:22:50;93706.88;;;-4.20;66.91
37972;BME280;23794;48.234;8.344;2023-02-26T05:25:17;93710.06;;;-4.36;66.25
37972;BME280;23794;48.234;8.344;2023-02-26T05:27:44;93706.16;;;-4.56;66.84
37972;BME280;23794;48.234;8.344;2023-02-26T05:30:13;93721.91;;;-4.72;66.87
37972;BME280;23794;48.234;8.344;2023-02-26T05:32:42;93707.91;;;-4.60;67.28
37972;BME280;23794;48.234;8.344;2023-02-26T05:35:10;93720.94;;;-4.50;67.08
37972;BME280;23794;48.234;8.344;2023-02-26T05:37:38;93717.75;;;-4.34;67.37
37972;BME280;23794;48.234;8.344;2023-02-26T05:40:06;93718.66;;;-4.12;66.85
37972;BME280;23794;48.234;8.344;2023-02-26T05:42:35;93716.41;;;-4.02;65.65
37972;BME280;23794;48.234;8.344;2023-02-26T05:45:05;93712.47;;;-4.04;65.37
37972;BME280;23794;48.234;8.344;2023-02-26T05:47:33;93711.09;;;-4.10;66.00
37972;BME280;23794;48.234;8.344;2023-02-26T05:49:59;93714.56;;;-4.10;65.58
37972;BME280;23794;48.234;8.344;2023-02-26T05:52:26;93718.66;;;-4.12;65.24
37972;BME280;23794;48.234;8.344;2023-02-26T05:54:53;93713.34;;;-4.30;65.98
37972;BME280;23794;48.234;8.344;2023-02-26T05:57:20;93717.59;;;-4.38;66.62
37972;BME280;23794;48.234;8.344;2023-02-26T05:59:46;93725.94;;;-4.30;66.34
37972;BME280;23794;48.234;8.344;2023-02-26T06:02:13;93724.34;;;-4.23;66.10
37972;BME280;23794;48.234;8.344;2023-02-26T06:04:39;93723.25;;;-4.30;66.73
37972;BME280;23794;48.234;8.344;2023-02-26T06:07:06;93724.34;;;-4.31;67.48
37972;BME280;23794;48.234;8.344;2023-02-26T06:09:33;93732.03;;;-4.12;66.92
37972;BME280;23794;48.234;8.344;2023-02-26T06:11:59;93744.00;;;-4.19;66.55
37972;BME280;23794;48.234;8.344;2023-02-26T06:14:26;93739.59;;;-4.14;67.40
37972;BME280;23794;48.234;8.344;2023-02-26T06:16:52;93742.28;;;-4.23;66.63
37972;BME280;23794;48.234;8.344;2023-02-26T06:19:19;93750.81;;;-4.30;67.30
37972;BME280;23794;48.234;8.344;2023-02-26T06:21:46;93748.94;;;-4.38;67.41
37972;BME280;23794;48.234;8.344;2023-02-26T06:24:13;93747.34;;;-4.39;67.41
37972;BME280;23794;48.234;8.344;2023-02-26T06:26:40;93752.22;;;-4.41;68.63
37972;BME280;23794;48.234;8.344;2023-02-26T06:29:06;93755.97;;;-4.25;68.42
37972;BME280;23794;48.234;8.344;2023-02-26T06:31:33;93758.63;;;-4.16;67.86
37972;BME280;23794;48.234;8.344;2023-02-26T06:34:00;93763.03;;;-4.11;68.39
37972;BME280;23794;48.234;8.344;2023-02-26T06:36:27;93757.84;;;-4.16;68.10
37972;BME280;23794;48.234;8.344;2023-02-26T06:38:53;93760.06;;;-4.10;67.61
37972;BME280;23794;48.234;8.344;2023-02-26T06:41:20;93764.56;;;-3.93;68.03
37972;BME280;23794;48.234;8.344;2023-02-26T06:43:46;93762.19;;;-3.94;68.22
37972;BME280;23794;48.234;8.344;2023-02-26T06:46:13;93769.88;;;-3.84;68.55
37972;BME280;23794;48.234;8.344;2023-02-26T06:48:40;93760.78;;;-4.00;68.15
37972;BME280;23794;48.234;8.344;2023-02-26T06:51:06;93771.31;;;-3.87;67.40
37972;BME280;23794;48.234;8.344;2023-02-26T06:53:33;93780.09;;;-3.86;68.14
37972;BME280;23794;48.234;8.344;2023-02-26T06:55:59;93781.19;;;-3.78;67.78
37972;BME280;23794;48.234;8.344;2023-02-26T06:58:26;93795.63;;;-3.62;67.69
37972;BME280;23794;48.234;8.344;2023-02-26T07:00:52;93784.97;;;-3.79;66.92
37972;BME280;23794;48.234;8.344;2023-02-26T07:03:19;93791.75;;;-3.82;67.11
37972;BME280;23794;48.234;8.344;2023-02-26T07:05:46;93789.84;;;-3.73;68.51
37972;BME280;23794;48.234;8.344;2023-02-26T07:08:13;93800.63;;;-3.51;68.16
37972;BME280;23794;48.234;8.344;2023-02-26T07:10:40;93803.78;;;-3.49;67.65
37972;BME280;23794;48.234;8.344;2023-02-26T07:13:07;93802.38;;;-3.56;66.50
37972;BME280;23794;48.234;8.344;2023-02-26T07:15:33;93798.19;;;-3.65;67.48
37972;BME280;23794;48.234;8.344;2023-02-26T07:18:00;93795.94;;;-3.63;67.75
37972;BME280;23794;48.234;8.344;2023-02-26T07:20:27;93807.22;;;-3.49;67.81
37972;BME280;23794;48.234;8.344;2023-02-26T07:22:55;93809.41;;;-3.42;67.36
37972;BME280;23794;48.234;8.344;2023-02-26T07:25:21;93809.97;;;-3.28;68.11
37972;BME280;23794;48.234;8.344;2023-02-26T07:27:48;93814.38;;;-3.23;66.69
37972;BME280;23794;48.234;8.344;2023-02-26T07:30:15;93816.97;;;-3.44;65.33
37972;BME280;23794;48.234;8.344;2023-02-26T07:32:41;93815.00;;;-3.65;66.01
37972;BME280;23794;48.234;8.344;2023-02-26T07:35:09;93813.81;;;-3.76;67.16
37972;BME280;23794;48.234;8.344;2023-02-26T07:37:36;93811.53;;;-3.57;67.79
37972;BME280;23794;48.234;8.344;2023-02-26T07:40:03;93816.41;;;-3.50;67.43
37972;BME280;23794;48.234;8.344;2023-02-26T07:42:29;93831.69;;;-3.59;66.21
37972;BME280;23794;48.234;8.344;2023-02-26T07:44:57;93816.47;;;-3.85;65.66
37972;BME280;23794;48.234;8.344;2023-02-26T07:47:26;93817.72;;;-3.74;66.97
37972;BME280;23794;48.234;8.344;2023-02-26T07:49:53;93819.56;;;-3.57;65.98
37972;BME280;23794;48.234;8.344;2023-02-26T07:52:19;93826.97;;;-3.53;66.35
37972;BME280;23794;48.234;8.344;2023-02-26T07:54:46;93821.47;;;-3.66;65.73
37972;BME280;23794;48.234;8.344;2023-02-26T07:57:13;93845.66;;;-3.45;65.92
37972;BME280;23794;48.234;8.344;2023-02-26T07:59:39;93840.22;;;-3.66;64.39
37972;BME280;23794;48.234;8.344;2023-02-26T08:02:06;93832.84;;;-3.78;65.39
37972;BME280;23794;48.234;8.344;2023-02-26T08:04:32;93840.38;;;-3.71;65.33
37972;BME280;23794;48.234;8.344;2023-02-26T08:06:59;93838.13;;;-3.51;63.85
37972;BME280;23794;48.234;8.344;2023-02-26T08:09:27;93836.41;;;-3.56;64.03
37972;BME280;23794;48.234;8.344;2023-02-26T08:11:53;93829.13;;;-3.38;64.17
37972;BME280;23794;48.234;8.344;2023-02-26T08:14:21;93828.78;;;-2.77;63.83
37972;BME280;23794;48.234;8.344;2023-02-26T08:16:48;93834.38;;;-2.18;62.97
37972;BME280;23794;48.234;8.344;2023-02-26T08:19:14;93817.72;;;-2.12;61.45
37972;BME280;23794;48.234;8.344;2023-02-26T08:21:41;93818.63;;;-2.41;61.25
37972;BME280;23794;48.234;8.344;2023-02-26T08:24:10;93832.75;;;-2.53;60.69
37972;BME280;23794;48.234;8.344;2023-02-26T08:26:36;93828.00;;;-2.77;61.32
37972;BME280;23794;48.234;8.344;2023-02-26T08:29:04;93835.75;;;-2.84;60.61
37972;BME280;23794;48.234;8.344;2023-02-26T08:31:31;93815.88;;;-3.04;60.87
37972;BME280;23794;48.234;8.344;2023-02-26T08:34:00;93824.59;;;-3.55;62.89
37972;BME280;23794;48.234;8.344;2023-02-26T08:36:27;93823.31;;;-3.19;63.17
37972;BME280;23794;48.234;8.344;2023-02-26T08:38:54;93829.69;;;-2.72;62.18
37972;BME280;23794;48.234;8.344;2023-02-26T08:41:20;93823.56;;;-2.73;61.04
37972;BME280;23794;48.234;8.344;2023-02-26T08:43:48;93828.66;;;-2.38;60.99
37972;BME280;23794;48.234;8.344;2023-02-26T08:46:16;93816.13;;;-1.91;60.53
37972;BME280;23794;48.234;8.344;2023-02-26T08:48:42;93824.63;;;-1.89;59.11
37972;BME280;23794;48.234;8.344;2023-02-26T08:51:09;93829.88;;;-1.93;60.46
37972;BME280;23794;48.234;8.344;2023-02-26T08:53:37;93827.69;;;-2.12;59.71
37972;BME280;23794;48.234;8.344;2023-02-26T08:56:05;93836.44;;;-2.03;60.43
37972;BME280;23794;48.234;8.344;2023-02-26T08:58:32;93830.28;;;-2.03;59.32
37972;BME280;23794;48.234;8.344;2023-02-26T09:00:58;93839.31;;;-2.08;58.97
37972;BME280;23794;48.234;8.344;2023-02-26T09:03:25;93832.97;;;-2.24;58.12
37972;BME280;23794;48.234;8.344;2023-02-26T09:05:51;93840.13;;;-2.29;58.62
37972;BME280;23794;48.234;8.344;2023-02-26T09:08:18;93829.25;;;-2.32;58.88
37972;BME280;23794;48.234;8.344;2023-02-26T09:10:46;93833.19;;;-2.08;58.20
37972;BME280;23794;48.234;8.344;2023-02-26T09:13:13;93839.63;;;-2.22;57.64
37972;BME280;23794;48.234;8.344;2023-02-26T09:15:40;93836.59;;;-2.20;55.82
37972;BME280;23794;48.234;8.344;2023-02-26T09:18:09;93837.09;;;-2.27;57.73
37972;BME280;23794;48.234;8.344;2023-02-26T09:20:42;93854.19;;;-2.32;58.58
37972;BME280;23794;48.234;8.344;2023-02-26T09:23:09;93857.88;;;-2.36;57.98
37972;BME280;23794;48.234;8.344;2023-02-26T09:25:35;93852.19;;;-2.35;57.57
37972;BME280;23794;48.234;8.344;2023-02-26T09:28:02;93866.28;;;-2.68;56.65
37972;BME280;23794;48.234;8.344;2023-02-26T09:30:30;93854.53;;;-2.84;58.39
37972;BME280;23794;48.234;8.344;2023-02-26T09:32:57;93857.25;;;-2.63;58.26
37972;BME280;23794;48.234;8.344;2023-02-26T09:35:24;93846.16;;;-2.53;58.22
37972;BME280;23794;48.234;8.344;2023-02-26T09:37:51;93851.22;;;-2.81;56.51
37972;BME280;23794;48.234;8.344;2023-02-26T09:40:41;93854.44;;;-2.97;57.92
37972;BME280;23794;48.234;8.344;2023-02-26T09:45:41;93855.09;;;-2.49;59.79
37972;BME280;23794;48.234;8.344;2023-02-26T09:48:13;93859.44;;;-2.56;58.26
37972;BME280;23794;48.234;8.344;2023-02-26T09:50:44;93863.69;;;-2.55;58.06
37972;BME280;23794;48.234;8.344;2023-02-26T09:53:17;93866.81;;;-2.53;58.73
37972;BME280;23794;48.234;8.344;2023-02-26T09:55:48;93857.53;;;-2.86;59.07
37972;BME280;23794;48.234;8.344;2023-02-26T09:58:28;93873.75;;;-2.52;58.64
37972;BME280;23794;48.234;8.344;2023-02-26T10:14:25;93874.63;;;-2.39;59.81
37972;BME280;23794;48.234;8.344;2023-02-26T10:16:58;93872.63;;;-2.51;60.15
37972;BME280;23794;48.234;8.344;2023-02-26T10:19:31;93870.88;;;-2.77;60.52
37972;BME280;23794;48.234;8.344;2023-02-26T10:22:15;93877.22;;;-2.52;62.08
37972;BME280;23794;48.234;8.344;2023-02-26T10:24:55;93905.53;;;-2.63;62.00
37972;BME280;23794;48.234;8.344;2023-02-26T10:27:50;93893.53;;;-2.96;65.07
37972;BME280;23794;48.234;8.344;2023-02-26T10:30:33;93903.69;;;-3.10;63.93
37972;BME280;23794;48.234;8.344;2023-02-26T10:33:31;93901.53;;;-3.26;66.75
37972;BME280;23794;48.234;8.344;2023-02-26T10:36:11;93898.16;;;-3.05;65.08
37972;BME280;23794;48.234;8.344;2023-02-26T10:38:41;93891.16;;;-2.88;65.41
37972;BME280;23794;48.234;8.344;2023-02-26T10:41:13;93902.09;;;-2.72;64.95
37972;BME280;23794;48.234;8.344;2023-02-26T10:43:46;93916.66;;;-2.82;64.26
37972;BME280;23794;48.234;8.344;2023-02-26T10:46:43;93941.94;;;-2.92;64.58
37972;BME280;23794;48.234;8.344;2023-02-26T10:49:36;93898.97;;;-2.74;62.30
37972;BME280;23794;48.234;8.344;2023-02-26T10:52:20;93905.44;;;-1.49;60.77
37972;BME280;23794;48.234;8.344;2023-02-26T10:57:41;93885.22;;;-1.34;56.91
37972;BME280;23794;48.234;8.344;2023-02-26T11:00:16;93889.66;;;-1.50;56.20
37972;BME280;23794;48.234;8.344;2023-02-26T11:02:46;93885.09;;;-1.37;55.90
37972;BME280;23794;48.234;8.344;2023-02-26T11:05:23;93887.25;;;-1.18;54.72
37972;BME280;23794;48.234;8.344;2023-02-26T11:07:55;93872.94;;;-1.22;53.70
37972;BME280;23794;48.234;8.344;2023-02-26T11:10:26;93863.66;;;-0.63;55.01
37972;BME280;23794;48.234;8.344;2023-02-26T11:12:53;93867.09;;;-0.50;51.66
37972;BME280;23794;48.234;8.344;2023-02-26T11:15:22;93877.66;;;-0.94;52.66
37972;BME280;23794;48.234;8.344;2023-02-26T11:17:52;93885.59;;;-1.10;53.98
37972;BME280;23794;48.234;8.344;2023-02-26T11:20:36;93886.19;;;-1.05;56.17
37972;BME280;23794;48.234;8.344;2023-02-26T11:23:06;93885.53;;;-1.48;57.86
37972;BME280;23794;48.234;8.344;2023-02-26T11:25:34;93895.75;;;-1.28;57.44
37972;BME280;23794;48.234;8.344;2023-02-26T11:28:17;93895.25;;;-1.09;57.93
37972;BME280;23794;48.234;8.344;2023-02-26T11:30:45;93905.66;;;-1.54;57.02
37972;BME280;23794;48.234;8.344;2023-02-26T11:35:48;93924.19;;;-1.94;59.21
37972;BME280;23794;48.234;8.344;2023-02-26T11:38:24;93920.00;;;-2.25;59.19
37972;BME280;23794;48.234;8.344;2023-02-26T11:40:55;93923.31;;;-2.29;60.12
37972;BME280;23794;48.234;8.344;2023-02-26T11:43:25;93920.69;;;-2.16;58.50
37972;BME280;23794;48.234;8.344;2023-02-26T11:45:57;93912.50;;;-2.20;58.20
37972;BME280;23794;48.234;8.344;2023-02-26T11:48:29;93906.59;;;-2.34;58.81
37972;BME280;23794;48.234;8.344;2023-02-26T11:51:00;93911.41;;;-2.19;58.87
37972;BME280;23794;48.234;8.344;2023-02-26T11:53:34;93897.72;;;-2.05;59.42
37972;BME280;23794;48.234;8.344;2023-02-26T11:56:08;93904.16;;;-2.18;58.61
37972;BME280;23794;48.234;8.344;2023-02-26T11:58:38;93901.53;;;-2.57;59.85
37972;BME280;23794;48.234;8.344;2023-02-26T12:01:08;93921.38;;;-2.49;62.20
37972;BME280;23794;48.234;8.344;2023-02-26T12:03:38;93917.41;;;-2.73;63.24
37972;BME280;23794;48.234;8.344;2023-02-26T12:06:18;93908.19;;;-2.93;62.65
37972;BME280;23794;48.234;8.344;2023-02-26T12:08:46;93915.31;;;-2.97;61.66
37972;BME280;23794;48.234;8.344;2023-02-26T12:11:37;93919.59;;;-3.05;62.76
37972;BME280;23794;48.234;8.344;2023-02-26T12:14:46;93921.81;;;-3.07;64.36
37972;BME280;23794;48.234;8.344;2023-02-26T12:17:35;93914.94;;;-2.87;62.90
37972;BME280;23794;48.234;8.344;2023-02-26T12:20:16;93919.00;;;-2.72;63.50
37972;BME280;23794;48.234;8.344;2023-02-26T12:22:49;93917.69;;;-2.66;62.79
37972;BME280;23794;48.234;8.344;2023-02-26T12:31:02;93914.25;;;-2.45;62.38
37972;BME280;23794;48.234;8.344;2023-02-26T12:36:48;93913.47;;;-2.24;62.27
37972;BME280;23794;48.234;8.344;2023-02-26T12:42:49;93919.72;;;-2.12;62.73
37972;BME280;23794;48.234;8.344;2023-02-26T12:56:54;93907.28;;;-2.37;62.66
37972;BME280;23794;48.234;8.344;2023-02-26T13:02:55;93918.06;;;-2.25;61.66
37972;BME280;23794;48.234;8.344;2023-02-26T13:14:17;93926.66;;;-1.68;60.82
37972;BME280;23794;48.234;8.344;2023-02-26T13:19:44;93906.84;;;-1.64;60.96
37972;BME280;23794;48.234;8.344;2023-02-26T13:22:28;93897.06;;;-1.47;61.23
37972;BME280;23794;48.234;8.344;2023-02-26T13:24:59;93914.28;;;-1.82;60.57
37972;BME280;23794;48.234;8.344;2023-02-26T13:27:31;93923.13;;;-2.02;62.96
37972;BME280;23794;48.234;8.344;2023-02-26T13:30:18;93909.88;;;-1.86;61.20
37972;BME280;23794;48.234;8.344;2023-02-26T13:32:46;93916.53;;;-2.05;62.11
37972;BME280;23794;48.234;8.344;2023-02-26T13:35:36;93917.88;;;-1.77;63.33
37972;BME280;23794;48.234;8.344;2023-02-26T13:41:08;93920.44;;;-2.02;63.19
37972;BME280;23794;48.234;8.344;2023-02-26T13:46:38;93925.53;;;-2.31;65.11
37972;BME280;23794;48.234;8.344;2023-02-26T13:49:39;93920.00;;;-2.25;65.96
37972;BME280;23794;48.234;8.344;2023-02-26T13:52:33;93923.59;;;-2.00;65.16
37972;BME280;23794;48.234;8.344;2023-02-26T13:55:03;93930.53;;;-2.20;64.25
37972;BME280;23794;48.234;8.344;2023-02-26T13:57:50;93942.03;;;-2.41;65.21
37972;BME280;23794;48.234;8.344;2023-02-26T14:00:26;93938.13;;;-2.52;65.69
37972;BME280;23794;48.234;8.344;2023-02-26T14:08:25;93952.84;;;-2.07;67.40
37972;BME280;23794;48.234;8.344;2023-02-26T14:13:34;93951.59;;;-1.68;64.84
37972;BME280;23794;48.234;8.344;2023-02-26T14:16:10;93951.59;;;-1.68;65.28
37972;BME280;23794;48.234;8.344;2023-02-26T14:24:15;93947.13;;;-1.64;65.65
37972;BME280;23794;48.234;8.344;2023-02-26T14:26:47;93946.50;;;-1.60;65.54
37972;BME280;23794;48.234;8.344;2023-02-26T14:29:19;93949.25;;;-1.69;66.48
37972;BME280;23794;48.234;8.344;2023-02-26T14:34:28;93947.47;;;-1.86;67.45
37972;BME280;23794;48.234;8.344;2023-02-26T14:37:02;93957.38;;;-1.99;67.81
37972;BME280;23794;48.234;8.344;2023-02-26T14:39:44;93970.94;;;-1.96;67.31
37972;BME280;23794;48.234;8.344;2023-02-26T14:42:19;93962.22;;;-2.14;67.09
37972;BME280;23794;48.234;8.344;2023-02-26T14:44:51;93963.59;;;-2.07;67.76
37972;BME280;23794;48.234;8.344;2023-02-26T14:47:20;93964.91;;;-1.92;67.74
37972;BME280;23794;48.234;8.344;2023-02-26T14:49:47;93970.22;;;-2.05;67.10
37972;BME280;23794;48.234;8.344;2023-02-26T14:55:22;93961.19;;;-2.00;67.12
37972;BME280;23794;48.234;8.344;2023-02-26T15:08:56;93956.25;;;-1.56;63.00
37972;BME280;23794;48.234;8.344;2023-02-26T15:20:15;93965.94;;;-2.06;61.97
37972;BME280;23794;48.234;8.344;2023-02-26T15:25:32;93978.22;;;-2.26;61.84
37972;BME280;23794;48.234;8.344;2023-02-26T15:28:00;93979.03;;;-2.25;62.41
37972;BME280;23794;48.234;8.344;2023-02-26T15:30:29;93984.75;;;-2.06;63.48
37972;BME280;23794;48.234;8.344;2023-02-26T15:32:58;93985.50;;;-2.26;60.76
37972;BME280;23794;48.234;8.344;2023-02-26T15:35:29;93994.00;;;-2.24;63.60
37972;BME280;23794;48.234;8.344;2023-02-26T15:37:59;93998.34;;;-2.11;61.91
37972;BME280;23794;48.234;8.344;2023-02-26T15:40:29;93989.88;;;-1.92;62.01